Barro Duro, Brazil
Current Conditions -  °F | °C
As of 3:00 AM on Saturday 20 Dec 2014 (Local Time) from SBTE Reporting Station
Broken Clouds Broken Clouds  
Wind Chill: 79°   Ceiling: 3000
Heat Index: 82°   Visibility: 6mi
Dew Point: 72°   Wind: 2mph
Humidity: 78%   Direction: 310°NW
Pressure: 29.83"   Gusts: NA
Location:  5.82°S, 42.51°W
Report Text: SBTE 200600Z 31002KT 9999 BKN030 26/22 Q1010
Loading
Personal Weather Stations






























Interactive Weather Map New forecast layout! Learn more

10-Day Weather Forecast

Advertisements
Track Severe Weather on mobile